sensor_id;sensor_type;location;lat;lon;timestamp;P1;durP1;ratioP1;P2;durP2;ratioP2
14088;SDS011;7120;52.890;6.040;2023-06-05T00:00:23;17.83;;;15.13;;
14088;SDS011;7120;52.890;6.040;2023-06-05T00:02:48;19.53;;;16.73;;
14088;SDS011;7120;52.890;6.040;2023-06-05T00:05:14;20.20;;;17.93;;
14088;SDS011;7120;52.890;6.040;2023-06-05T00:07:40;20.13;;;17.50;;
14088;SDS011;7120;52.890;6.040;2023-06-05T00:10:06;20.03;;;17.47;;
14088;SDS011;7120;52.890;6.040;2023-06-05T00:12:32;21.97;;;16.83;;
14088;SDS011;7120;52.890;6.040;2023-06-05T00:14:57;22.20;;;16.30;;
14088;SDS011;7120;52.890;6.040;2023-06-05T00:17:22;24.83;;;22.43;;
14088;SDS011;7120;52.890;6.040;2023-06-05T00:19:49;22.37;;;18.90;;
14088;SDS011;7120;52.890;6.040;2023-06-05T00:22:15;19.97;;;17.80;;
14088;SDS011;7120;52.890;6.040;2023-06-05T00:24:40;23.23;;;20.93;;
14088;SDS011;7120;52.890;6.040;2023-06-05T00:27:05;21.80;;;19.57;;
14088;SDS011;7120;52.890;6.040;2023-06-05T00:29:31;24.03;;;21.63;;
14088;SDS011;7120;52.890;6.040;2023-06-05T00:31:56;27.03;;;24.67;;
14088;SDS011;7120;52.890;6.040;2023-06-05T00:34:21;26.83;;;24.33;;
14088;SDS011;7120;52.890;6.040;2023-06-05T00:36:47;24.23;;;20.40;;
14088;SDS011;7120;52.890;6.040;2023-06-05T00:39:15;21.80;;;16.60;;
14088;SDS011;7120;52.890;6.040;2023-06-05T00:41:43;21.60;;;17.83;;
14088;SDS011;7120;52.890;6.040;2023-06-05T00:44:10;23.83;;;20.70;;
14088;SDS011;7120;52.890;6.040;2023-06-05T00:46:35;24.20;;;17.57;;
14088;SDS011;7120;52.890;6.040;2023-06-05T00:49:01;29.43;;;19.30;;
14088;SDS011;7120;52.890;6.040;2023-06-05T00:51:26;24.67;;;19.70;;
14088;SDS011;7120;52.890;6.040;2023-06-05T00:53:52;27.30;;;19.77;;
14088;SDS011;7120;52.890;6.040;2023-06-05T00:56:17;21.10;;;17.90;;
14088;SDS011;7120;52.890;6.040;2023-06-05T00:58:45;23.17;;;16.77;;
14088;SDS011;7120;52.890;6.040;2023-06-05T01:01:12;24.67;;;16.63;;
14088;SDS011;7120;52.890;6.040;2023-06-05T01:03:39;23.60;;;19.97;;
14088;SDS011;7120;52.890;6.040;2023-06-05T01:06:05;26.23;;;21.27;;
14088;SDS011;7120;52.890;6.040;2023-06-05T01:08:35;28.50;;;25.87;;
14088;SDS011;7120;52.890;6.040;2023-06-05T01:13:46;27.00;;;22.43;;
14088;SDS011;7120;52.890;6.040;2023-06-05T01:16:19;29.37;;;25.93;;
14088;SDS011;7120;52.890;6.040;2023-06-05T01:18:56;23.80;;;20.67;;
14088;SDS011;7120;52.890;6.040;2023-06-05T01:21:27;31.77;;;28.47;;
14088;SDS011;7120;52.890;6.040;2023-06-05T01:23:54;29.70;;;26.60;;
14088;SDS011;7120;52.890;6.040;2023-06-05T01:26:20;25.57;;;23.07;;
14088;SDS011;7120;52.890;6.040;2023-06-05T01:28:53;21.00;;;17.80;;
14088;SDS011;7120;52.890;6.040;2023-06-05T01:31:20;23.87;;;21.43;;
14088;SDS011;7120;52.890;6.040;2023-06-05T01:33:51;23.83;;;20.53;;
14088;SDS011;7120;52.890;6.040;2023-06-05T01:36:22;24.13;;;18.03;;
14088;SDS011;7120;52.890;6.040;2023-06-05T01:38:48;20.97;;;17.60;;
14088;SDS011;7120;52.890;6.040;2023-06-05T01:41:14;23.50;;;17.40;;
14088;SDS011;7120;52.890;6.040;2023-06-05T01:43:40;19.63;;;17.30;;
14088;SDS011;7120;52.890;6.040;2023-06-05T01:46:07;20.60;;;14.77;;
14088;SDS011;7120;52.890;6.040;2023-06-05T01:48:35;15.47;;;13.13;;
14088;SDS011;7120;52.890;6.040;2023-06-05T01:51:00;17.50;;;13.23;;
14088;SDS011;7120;52.890;6.040;2023-06-05T01:53:26;21.00;;;15.70;;
14088;SDS011;7120;52.890;6.040;2023-06-05T01:55:52;17.57;;;13.20;;
14088;SDS011;7120;52.890;6.040;2023-06-05T01:58:22;19.80;;;14.57;;
14088;SDS011;7120;52.890;6.040;2023-06-05T02:00:48;19.83;;;13.37;;
14088;SDS011;7120;52.890;6.040;2023-06-05T02:03:14;19.03;;;14.20;;
14088;SDS011;7120;52.890;6.040;2023-06-05T02:05:43;16.03;;;12.60;;
14088;SDS011;7120;52.890;6.040;2023-06-05T02:08:08;24.50;;;14.90;;
14088;SDS011;7120;52.890;6.040;2023-06-05T02:10:35;16.97;;;14.10;;
14088;SDS011;7120;52.890;6.040;2023-06-05T02:13:08;16.27;;;12.37;;
14088;SDS011;7120;52.890;6.040;2023-06-05T02:15:33;19.60;;;15.73;;
14088;SDS011;7120;52.890;6.040;2023-06-05T02:18:00;20.33;;;15.20;;
14088;SDS011;7120;52.890;6.040;2023-06-05T02:20:25;20.67;;;15.10;;
14088;SDS011;7120;52.890;6.040;2023-06-05T02:22:51;19.87;;;15.83;;
14088;SDS011;7120;52.890;6.040;2023-06-05T02:25:17;18.37;;;14.53;;
14088;SDS011;7120;52.890;6.040;2023-06-05T02:27:46;18.20;;;14.03;;
14088;SDS011;7120;52.890;6.040;2023-06-05T02:30:12;16.53;;;14.10;;
14088;SDS011;7120;52.890;6.040;2023-06-05T02:32:38;19.03;;;14.60;;
14088;SDS011;7120;52.890;6.040;2023-06-05T02:35:08;17.63;;;13.60;;
14088;SDS011;7120;52.890;6.040;2023-06-05T02:37:39;21.17;;;14.37;;
14088;SDS011;7120;52.890;6.040;2023-06-05T02:40:09;18.97;;;15.23;;
14088;SDS011;7120;52.890;6.040;2023-06-05T02:42:36;17.90;;;15.70;;
14088;SDS011;7120;52.890;6.040;2023-06-05T02:45:02;17.03;;;14.47;;
14088;SDS011;7120;52.890;6.040;2023-06-05T02:47:28;20.83;;;16.33;;
14088;SDS011;7120;52.890;6.040;2023-06-05T02:49:54;18.40;;;14.63;;
14088;SDS011;7120;52.890;6.040;2023-06-05T02:52:19;17.30;;;14.43;;
14088;SDS011;7120;52.890;6.040;2023-06-05T02:54:45;19.40;;;14.10;;
14088;SDS011;7120;52.890;6.040;2023-06-05T02:57:11;18.60;;;14.40;;
14088;SDS011;7120;52.890;6.040;2023-06-05T02:59:36;15.90;;;13.93;;
14088;SDS011;7120;52.890;6.040;2023-06-05T03:02:07;16.43;;;13.47;;
14088;SDS011;7120;52.890;6.040;2023-06-05T03:04:33;16.33;;;14.00;;
14088;SDS011;7120;52.890;6.040;2023-06-05T03:06:59;15.20;;;13.43;;
14088;SDS011;7120;52.890;6.040;2023-06-05T03:09:28;16.30;;;14.23;;
14088;SDS011;7120;52.890;6.040;2023-06-05T03:11:53;15.10;;;13.60;;
14088;SDS011;7120;52.890;6.040;2023-06-05T03:14:19;16.63;;;13.20;;
14088;SDS011;7120;52.890;6.040;2023-06-05T03:16:44;14.77;;;13.07;;
14088;SDS011;7120;52.890;6.040;2023-06-05T03:19:11;14.23;;;12.80;;
14088;SDS011;7120;52.890;6.040;2023-06-05T03:21:37;16.83;;;13.70;;
14088;SDS011;7120;52.890;6.040;2023-06-05T03:24:09;15.67;;;13.17;;
14088;SDS011;7120;52.890;6.040;2023-06-05T03:26:39;16.07;;;13.83;;
14088;SDS011;7120;52.890;6.040;2023-06-05T03:29:06;15.00;;;12.77;;
14088;SDS011;7120;52.890;6.040;2023-06-05T03:31:32;15.47;;;12.33;;
14088;SDS011;7120;52.890;6.040;2023-06-05T03:33:57;15.27;;;13.43;;
14088;SDS011;7120;52.890;6.040;2023-06-05T03:36:24;15.03;;;13.23;;
14088;SDS011;7120;52.890;6.040;2023-06-05T03:38:50;14.03;;;12.60;;
14088;SDS011;7120;52.890;6.040;2023-06-05T03:41:16;15.63;;;13.40;;
14088;SDS011;7120;52.890;6.040;2023-06-05T03:43:41;14.90;;;13.00;;
14088;SDS011;7120;52.890;6.040;2023-06-05T03:46:07;14.43;;;12.47;;
14088;SDS011;7120;52.890;6.040;2023-06-05T03:48:32;16.03;;;13.43;;
14088;SDS011;7120;52.890;6.040;2023-06-05T03:50:58;15.70;;;12.63;;
14088;SDS011;7120;52.890;6.040;2023-06-05T03:53:25;16.13;;;12.57;;
14088;SDS011;7120;52.890;6.040;2023-06-05T03:55:54;15.27;;;12.43;;
14088;SDS011;7120;52.890;6.040;2023-06-05T03:58:20;13.80;;;12.23;;
14088;SDS011;7120;52.890;6.040;2023-06-05T04:00:46;13.90;;;12.50;;
14088;SDS011;7120;52.890;6.040;2023-06-05T04:03:15;13.67;;;11.87;;
14088;SDS011;7120;52.890;6.040;2023-06-05T04:05:41;12.80;;;11.50;;
14088;SDS011;7120;52.890;6.040;2023-06-05T04:08:08;14.40;;;12.97;;
14088;SDS011;7120;52.890;6.040;2023-06-05T04:10:37;15.37;;;12.60;;
14088;SDS011;7120;52.890;6.040;2023-06-05T04:13:02;13.93;;;12.37;;
14088;SDS011;7120;52.890;6.040;2023-06-05T04:15:28;14.13;;;12.63;;
14088;SDS011;7120;52.890;6.040;2023-06-05T04:17:54;15.17;;;12.70;;
14088;SDS011;7120;52.890;6.040;2023-06-05T04:20:20;13.00;;;11.63;;
14088;SDS011;7120;52.890;6.040;2023-06-05T04:22:46;15.83;;;12.27;;
14088;SDS011;7120;52.890;6.040;2023-06-05T04:25:11;15.77;;;12.27;;
14088;SDS011;7120;52.890;6.040;2023-06-05T04:27:41;14.83;;;12.90;;
14088;SDS011;7120;52.890;6.040;2023-06-05T04:30:09;19.03;;;12.13;;
14088;SDS011;7120;52.890;6.040;2023-06-05T04:32:36;13.87;;;12.00;;
14088;SDS011;7120;52.890;6.040;2023-06-05T04:35:02;15.27;;;11.90;;
14088;SDS011;7120;52.890;6.040;2023-06-05T04:37:28;12.43;;;11.17;;
14088;SDS011;7120;52.890;6.040;2023-06-05T04:39:54;13.20;;;10.80;;
14088;SDS011;7120;52.890;6.040;2023-06-05T04:42:20;11.80;;;10.60;;
14088;SDS011;7120;52.890;6.040;2023-06-05T04:44:53;11.40;;;10.07;;
14088;SDS011;7120;52.890;6.040;2023-06-05T04:47:21;11.27;;;10.17;;
14088;SDS011;7120;52.890;6.040;2023-06-05T04:49:47;11.67;;;10.43;;
14088;SDS011;7120;52.890;6.040;2023-06-05T04:52:14;12.87;;;10.13;;
14088;SDS011;7120;52.890;6.040;2023-06-05T04:54:39;10.87;;;9.80;;
14088;SDS011;7120;52.890;6.040;2023-06-05T04:57:05;12.27;;;10.00;;
14088;SDS011;7120;52.890;6.040;2023-06-05T04:59:31;11.43;;;9.67;;
14088;SDS011;7120;52.890;6.040;2023-06-05T05:01:57;12.57;;;9.90;;
14088;SDS011;7120;52.890;6.040;2023-06-05T05:04:23;11.17;;;9.90;;
14088;SDS011;7120;52.890;6.040;2023-06-05T05:06:48;10.10;;;9.17;;
14088;SDS011;7120;52.890;6.040;2023-06-05T05:09:16;9.73;;;8.73;;
14088;SDS011;7120;52.890;6.040;2023-06-05T05:11:42;11.00;;;8.47;;
14088;SDS011;7120;52.890;6.040;2023-06-05T05:14:08;10.57;;;8.47;;
14088;SDS011;7120;52.890;6.040;2023-06-05T05:16:33;9.43;;;8.50;;
14088;SDS011;7120;52.890;6.040;2023-06-05T05:18:59;10.27;;;8.80;;
14088;SDS011;7120;52.890;6.040;2023-06-05T05:21:24;9.07;;;8.20;;
14088;SDS011;7120;52.890;6.040;2023-06-05T05:23:50;9.50;;;8.40;;
14088;SDS011;7120;52.890;6.040;2023-06-05T05:26:16;8.80;;;7.90;;
14088;SDS011;7120;52.890;6.040;2023-06-05T05:28:41;7.87;;;7.10;;
14088;SDS011;7120;52.890;6.040;2023-06-05T05:31:07;7.93;;;7.10;;
14088;SDS011;7120;52.890;6.040;2023-06-05T05:33:32;7.40;;;6.70;;
14088;SDS011;7120;52.890;6.040;2023-06-05T05:35:57;8.50;;;7.00;;
14088;SDS011;7120;52.890;6.040;2023-06-05T05:38:23;7.03;;;6.33;;
14088;SDS011;7120;52.890;6.040;2023-06-05T05:40:48;9.57;;;6.70;;
14088;SDS011;7120;52.890;6.040;2023-06-05T05:43:13;7.07;;;6.33;;
14088;SDS011;7120;52.890;6.040;2023-06-05T05:45:40;6.20;;;5.57;;
14088;SDS011;7120;52.890;6.040;2023-06-05T05:48:07;5.47;;;4.83;;
14088;SDS011;7120;52.890;6.040;2023-06-05T05:50:33;5.17;;;4.33;;
14088;SDS011;7120;52.890;6.040;2023-06-05T05:52:58;5.07;;;4.67;;
14088;SDS011;7120;52.890;6.040;2023-06-05T05:55:24;4.63;;;4.23;;
14088;SDS011;7120;52.890;6.040;2023-06-05T05:57:49;4.43;;;4.03;;
14088;SDS011;7120;52.890;6.040;2023-06-05T06:00:15;4.40;;;4.00;;
14088;SDS011;7120;52.890;6.040;2023-06-05T06:02:40;3.90;;;3.60;;
14088;SDS011;7120;52.890;6.040;2023-06-05T06:05:07;4.23;;;3.77;;
14088;SDS011;7120;52.890;6.040;2023-06-05T06:07:33;3.60;;;3.30;;
14088;SDS011;7120;52.890;6.040;2023-06-05T06:10:00;3.60;;;3.30;;
14088;SDS011;7120;52.890;6.040;2023-06-05T06:12:26;3.87;;;3.57;;
14088;SDS011;7120;52.890;6.040;2023-06-05T06:14:53;3.80;;;3.40;;
14088;SDS011;7120;52.890;6.040;2023-06-05T06:17:19;3.73;;;3.43;;
14088;SDS011;7120;52.890;6.040;2023-06-05T06:19:45;4.57;;;3.80;;
14088;SDS011;7120;52.890;6.040;2023-06-05T06:22:13;4.57;;;4.17;;
14088;SDS011;7120;52.890;6.040;2023-06-05T06:24:40;5.10;;;3.60;;
14088;SDS011;7120;52.890;6.040;2023-06-05T06:27:07;3.63;;;3.33;;
14088;SDS011;7120;52.890;6.040;2023-06-05T06:29:34;3.70;;;3.40;;
14088;SDS011;7120;52.890;6.040;2023-06-05T06:31:59;5.77;;;3.17;;
14088;SDS011;7120;52.890;6.040;2023-06-05T06:34:25;4.77;;;3.70;;
14088;SDS011;7120;52.890;6.040;2023-06-05T06:36:51;5.10;;;3.60;;
14088;SDS011;7120;52.890;6.040;2023-06-05T06:39:17;5.53;;;3.73;;
14088;SDS011;7120;52.890;6.040;2023-06-05T06:41:43;4.00;;;3.60;;
14088;SDS011;7120;52.890;6.040;2023-06-05T06:44:09;3.77;;;3.47;;
14088;SDS011;7120;52.890;6.040;2023-06-05T06:46:34;4.83;;;3.83;;
14088;SDS011;7120;52.890;6.040;2023-06-05T06:49:00;5.40;;;3.87;;
14088;SDS011;7120;52.890;6.040;2023-06-05T06:51:26;4.60;;;3.80;;
14088;SDS011;7120;52.890;6.040;2023-06-05T06:53:51;3.70;;;3.40;;
14088;SDS011;7120;52.890;6.040;2023-06-05T06:56:16;4.03;;;3.63;;
14088;SDS011;7120;52.890;6.040;2023-06-05T06:58:43;3.83;;;3.40;;
14088;SDS011;7120;52.890;6.040;2023-06-05T07:01:09;3.53;;;3.23;;
14088;SDS011;7120;52.890;6.040;2023-06-05T07:03:36;3.40;;;3.10;;
14088;SDS011;7120;52.890;6.040;2023-06-05T07:06:01;3.20;;;2.90;;
14088;SDS011;7120;52.890;6.040;2023-06-05T07:08:27;4.00;;;3.50;;
14088;SDS011;7120;52.890;6.040;2023-06-05T07:10:52;3.17;;;2.87;;
14088;SDS011;7120;52.890;6.040;2023-06-05T07:13:21;4.40;;;3.00;;
14088;SDS011;7120;52.890;6.040;2023-06-05T07:15:47;3.93;;;3.13;;
14088;SDS011;7120;52.890;6.040;2023-06-05T07:18:13;3.47;;;3.17;;
14088;SDS011;7120;52.890;6.040;2023-06-05T07:20:38;3.00;;;2.80;;
14088;SDS011;7120;52.890;6.040;2023-06-05T07:23:04;5.27;;;3.40;;
14088;SDS011;7120;52.890;6.040;2023-06-05T07:25:30;3.50;;;3.07;;
14088;SDS011;7120;52.890;6.040;2023-06-05T07:27:55;3.03;;;2.80;;
14088;SDS011;7120;52.890;6.040;2023-06-05T07:30:21;3.60;;;3.30;;
14088;SDS011;7120;52.890;6.040;2023-06-05T07:32:46;5.33;;;3.13;;
14088;SDS011;7120;52.890;6.040;2023-06-05T07:35:12;4.17;;;3.20;;
14088;SDS011;7120;52.890;6.040;2023-06-05T07:37:39;3.30;;;3.10;;
14088;SDS011;7120;52.890;6.040;2023-06-05T07:40:05;3.17;;;2.90;;
14088;SDS011;7120;52.890;6.040;2023-06-05T07:42:31;3.67;;;3.30;;
14088;SDS011;7120;52.890;6.040;2023-06-05T07:44:56;3.50;;;3.20;;
14088;SDS011;7120;52.890;6.040;2023-06-05T07:47:22;3.20;;;2.90;;
14088;SDS011;7120;52.890;6.040;2023-06-05T07:49:59;3.20;;;2.90;;
14088;SDS011;7120;52.890;6.040;2023-06-05T07:52:29;3.17;;;2.97;;
14088;SDS011;7120;52.890;6.040;2023-06-05T07:54:55;3.10;;;2.90;;
14088;SDS011;7120;52.890;6.040;2023-06-05T07:57:20;3.40;;;3.10;;
14088;SDS011;7120;52.890;6.040;2023-06-05T07:59:46;3.57;;;3.00;;
14088;SDS011;7120;52.890;6.040;2023-06-05T08:02:14;3.30;;;3.00;;
14088;SDS011;7120;52.890;6.040;2023-06-05T08:04:39;3.27;;;2.97;;
14088;SDS011;7120;52.890;6.040;2023-06-05T08:07:05;4.77;;;4.40;;
14088;SDS011;7120;52.890;6.040;2023-06-05T08:09:31;4.00;;;2.73;;
14088;SDS011;7120;52.890;6.040;2023-06-05T08:11:58;5.87;;;2.83;;
14088;SDS011;7120;52.890;6.040;2023-06-05T08:14:24;3.27;;;3.07;;
14088;SDS011;7120;52.890;6.040;2023-06-05T08:16:49;3.33;;;3.03;;
14088;SDS011;7120;52.890;6.040;2023-06-05T08:19:15;3.77;;;3.27;;
14088;SDS011;7120;52.890;6.040;2023-06-05T08:21:40;3.23;;;2.93;;
14088;SDS011;7120;52.890;6.040;2023-06-05T08:24:06;3.10;;;2.90;;
14088;SDS011;7120;52.890;6.040;2023-06-05T08:26:31;2.97;;;2.70;;
14088;SDS011;7120;52.890;6.040;2023-06-05T08:28:57;5.13;;;3.30;;
14088;SDS011;7120;52.890;6.040;2023-06-05T08:31:22;3.40;;;3.10;;
14088;SDS011;7120;52.890;6.040;2023-06-05T08:33:48;4.13;;;3.83;;
14088;SDS011;7120;52.890;6.040;2023-06-05T08:36:14;3.87;;;3.37;;
14088;SDS011;7120;52.890;6.040;2023-06-05T08:38:39;3.10;;;2.90;;
14088;SDS011;7120;52.890;6.040;2023-06-05T08:41:06;3.83;;;3.53;;
14088;SDS011;7120;52.890;6.040;2023-06-05T08:43:37;3.27;;;3.00;;
14088;SDS011;7120;52.890;6.040;2023-06-05T08:46:05;3.73;;;3.43;;
14088;SDS011;7120;52.890;6.040;2023-06-05T08:48:32;4.10;;;3.70;;
14088;SDS011;7120;52.890;6.040;2023-06-05T08:50:59;3.63;;;3.27;;
14088;SDS011;7120;52.890;6.040;2023-06-05T08:53:25;3.70;;;3.40;;
14088;SDS011;7120;52.890;6.040;2023-06-05T08:55:57;3.30;;;3.00;;
14088;SDS011;7120;52.890;6.040;2023-06-05T08:58:23;3.10;;;2.90;;
14088;SDS011;7120;52.890;6.040;2023-06-05T09:00:49;3.23;;;2.93;;
14088;SDS011;7120;52.890;6.040;2023-06-05T09:03:15;3.20;;;3.00;;
14088;SDS011;7120;52.890;6.040;2023-06-05T09:05:43;3.90;;;3.60;;
14088;SDS011;7120;52.890;6.040;2023-06-05T09:08:08;4.40;;;4.00;;
14088;SDS011;7120;52.890;6.040;2023-06-05T09:10:34;4.20;;;3.57;;
14088;SDS011;7120;52.890;6.040;2023-06-05T09:13:01;5.10;;;3.67;;
14088;SDS011;7120;52.890;6.040;2023-06-05T09:15:28;3.70;;;3.40;;
14088;SDS011;7120;52.890;6.040;2023-06-05T09:20:40;3.90;;;3.60;;
14088;SDS011;7120;52.890;6.040;2023-06-05T09:25:53;3.93;;;3.40;;
14088;SDS011;7120;52.890;6.040;2023-06-05T09:28:21;3.53;;;3.23;;
14088;SDS011;7120;52.890;6.040;2023-06-05T09:30:53;4.63;;;3.33;;
14088;SDS011;7120;52.890;6.040;2023-06-05T09:33:21;3.93;;;3.40;;
14088;SDS011;7120;52.890;6.040;2023-06-05T09:35:46;4.17;;;3.77;;
14088;SDS011;7120;52.890;6.040;2023-06-05T09:38:24;9.70;;;3.73;;
14088;SDS011;7120;52.890;6.040;2023-06-05T09:40:51;4.45;;;4.05;;
14088;SDS011;7120;52.890;6.040;2023-06-05T09:43:20;3.58;;;3.28;;
14088;SDS011;7120;52.890;6.040;2023-06-05T09:45:47;3.67;;;3.37;;
14088;SDS011;7120;52.890;6.040;2023-06-05T09:48:13;3.90;;;3.60;;
14088;SDS011;7120;52.890;6.040;2023-06-05T09:50:39;7.30;;;3.60;;
14088;SDS011;7120;52.890;6.040;2023-06-05T09:53:05;4.13;;;3.75;;
14088;SDS011;7120;52.890;6.040;2023-06-05T09:55:33;6.20;;;3.88;;
14088;SDS011;7120;52.890;6.040;2023-06-05T09:58:00;4.07;;;3.77;;
14088;SDS011;7120;52.890;6.040;2023-06-05T10:00:35;4.10;;;3.80;;
14088;SDS011;7120;52.890;6.040;2023-06-05T10:03:03;4.23;;;3.83;;
14088;SDS011;7120;52.890;6.040;2023-06-05T10:05:32;3.90;;;3.60;;
14088;SDS011;7120;52.890;6.040;2023-06-05T10:08:01;4.67;;;4.27;;
14088;SDS011;7120;52.890;6.040;2023-06-05T10:10:27;3.73;;;3.37;;
14088;SDS011;7120;52.890;6.040;2023-06-05T10:12:54;4.70;;;4.30;;
14088;SDS011;7120;52.890;6.040;2023-06-05T10:15:21;6.13;;;4.30;;
14088;SDS011;7120;52.890;6.040;2023-06-05T10:17:48;4.10;;;3.80;;
14088;SDS011;7120;52.890;6.040;2023-06-05T10:20:13;4.70;;;4.07;;
14088;SDS011;7120;52.890;6.040;2023-06-05T10:22:40;4.20;;;3.90;;
14088;SDS011;7120;52.890;6.040;2023-06-05T10:25:06;3.97;;;3.67;;
14088;SDS011;7120;52.890;6.040;2023-06-05T10:35:31;4.53;;;4.13;;
14088;SDS011;7120;52.890;6.040;2023-06-05T10:38:18;4.10;;;3.70;;
14088;SDS011;7120;52.890;6.040;2023-06-05T10:40:48;4.07;;;3.72;;
14088;SDS011;7120;52.890;6.040;2023-06-05T10:46:32;4.13;;;3.83;;
14088;SDS011;7120;52.890;6.040;2023-06-05T10:51:49;6.75;;;3.90;;
14088;SDS011;7120;52.890;6.040;2023-06-05T10:56:59;3.97;;;3.67;;
14088;SDS011;7120;52.890;6.040;2023-06-05T10:59:38;7.05;;;3.70;;
14088;SDS011;7120;52.890;6.040;2023-06-05T11:07:41;4.30;;;3.90;;
14088;SDS011;7120;52.890;6.040;2023-06-05T11:15:08;4.25;;;3.40;;
14088;SDS011;7120;52.890;6.040;2023-06-05T11:17:36;4.85;;;4.28;;
14088;SDS011;7120;52.890;6.040;2023-06-05T11:20:06;4.60;;;4.20;;
14088;SDS011;7120;52.890;6.040;2023-06-05T11:30:20;5.18;;;3.10;;
14088;SDS011;7120;52.890;6.040;2023-06-05T11:32:47;3.60;;;3.20;;
14088;SDS011;7120;52.890;6.040;2023-06-05T11:35:15;4.05;;;3.70;;
14088;SDS011;7120;52.890;6.040;2023-06-05T11:37:41;4.13;;;3.70;;
14088;SDS011;7120;52.890;6.040;2023-06-05T11:40:07;4.82;;;3.80;;
14088;SDS011;7120;52.890;6.040;2023-06-05T11:42:36;5.97;;;3.50;;
14088;SDS011;7120;52.890;6.040;2023-06-05T11:45:09;4.03;;;3.70;;
14088;SDS011;7120;52.890;6.040;2023-06-05T11:47:38;3.33;;;3.03;;
14088;SDS011;7120;52.890;6.040;2023-06-05T11:50:07;4.47;;;3.70;;
14088;SDS011;7120;52.890;6.040;2023-06-05T11:52:34;4.50;;;4.10;;
14088;SDS011;7120;52.890;6.040;2023-06-05T11:55:18;4.35;;;3.90;;
14088;SDS011;7120;52.890;6.040;2023-06-05T11:57:47;3.83;;;3.47;;
14088;SDS011;7120;52.890;6.040;2023-06-05T12:00:14;4.20;;;3.80;;
14088;SDS011;7120;52.890;6.040;2023-06-05T12:02:43;3.80;;;3.50;;
14088;SDS011;7120;52.890;6.040;2023-06-05T12:05:09;4.18;;;3.60;;
14088;SDS011;7120;52.890;6.040;2023-06-05T12:07:35;4.18;;;3.78;;
14088;SDS011;7120;52.890;6.040;2023-06-05T12:10:04;4.03;;;3.63;;
14088;SDS011;7120;52.890;6.040;2023-06-05T12:12:32;4.15;;;3.78;;
14088;SDS011;7120;52.890;6.040;2023-06-05T12:15:13;5.85;;;4.05;;
14088;SDS011;7120;52.890;6.040;2023-06-05T12:17:39;3.95;;;3.65;;
14088;SDS011;7120;52.890;6.040;2023-06-05T12:20:04;4.50;;;4.10;;
14088;SDS011;7120;52.890;6.040;2023-06-05T12:22:34;5.10;;;4.05;;
14088;SDS011;7120;52.890;6.040;2023-06-05T12:27:41;6.03;;;4.50;;
14088;SDS011;7120;52.890;6.040;2023-06-05T12:30:07;3.88;;;3.58;;
14088;SDS011;7120;52.890;6.040;2023-06-05T12:32:34;5.20;;;3.80;;
14088;SDS011;7120;52.890;6.040;2023-06-05T12:35:00;4.00;;;3.47;;
14088;SDS011;7120;52.890;6.040;2023-06-05T12:37:26;4.13;;;3.70;;
14088;SDS011;7120;52.890;6.040;2023-06-05T12:40:02;5.40;;;3.50;;
14088;SDS011;7120;52.890;6.040;2023-06-05T12:42:36;4.20;;;3.80;;
14088;SDS011;7120;52.890;6.040;2023-06-05T12:45:06;5.03;;;4.20;;
14088;SDS011;7120;52.890;6.040;2023-06-05T12:47:33;4.20;;;3.80;;
14088;SDS011;7120;52.890;6.040;2023-06-05T12:49:59;4.20;;;3.90;;
14088;SDS011;7120;52.890;6.040;2023-06-05T12:52:24;5.00;;;3.53;;
14088;SDS011;7120;52.890;6.040;2023-06-05T12:54:54;4.07;;;3.40;;
14088;SDS011;7120;52.890;6.040;2023-06-05T12:57:21;3.83;;;3.53;;
14088;SDS011;7120;52.890;6.040;2023-06-05T12:59:46;4.45;;;3.80;;
14088;SDS011;7120;52.890;6.040;2023-06-05T13:02:11;4.28;;;3.88;;
14088;SDS011;7120;52.890;6.040;2023-06-05T13:04:38;4.17;;;3.77;;
14088;SDS011;7120;52.890;6.040;2023-06-05T13:07:04;3.90;;;3.60;;
14088;SDS011;7120;52.890;6.040;2023-06-05T13:09:31;5.18;;;3.80;;
14088;SDS011;7120;52.890;6.040;2023-06-05T13:11:56;3.60;;;3.30;;
14088;SDS011;7120;52.890;6.040;2023-06-05T13:14:24;3.97;;;3.67;;
14088;SDS011;7120;52.890;6.040;2023-06-05T13:16:49;3.67;;;3.38;;
14088;SDS011;7120;52.890;6.040;2023-06-05T13:19:15;5.65;;;4.55;;
14088;SDS011;7120;52.890;6.040;2023-06-05T13:21:40;3.60;;;3.30;;
14088;SDS011;7120;52.890;6.040;2023-06-05T13:24:05;3.53;;;3.08;;
14088;SDS011;7120;52.890;6.040;2023-06-05T13:26:31;6.93;;;3.97;;
14088;SDS011;7120;52.890;6.040;2023-06-05T13:28:56;3.93;;;3.60;;
14088;SDS011;7120;52.890;6.040;2023-06-05T13:31:21;4.13;;;3.77;;
14088;SDS011;7120;52.890;6.040;2023-06-05T13:33:47;4.63;;;3.40;;
14088;SDS011;7120;52.890;6.040;2023-06-05T13:36:12;3.70;;;3.40;;
14088;SDS011;7120;52.890;6.040;2023-06-05T13:38:38;4.30;;;3.00;;
14088;SDS011;7120;52.890;6.040;2023-06-05T13:41:04;4.80;;;3.40;;
14088;SDS011;7120;52.890;6.040;2023-06-05T13:43:30;3.60;;;3.30;;
14088;SDS011;7120;52.890;6.040;2023-06-05T13:45:56;3.80;;;3.42;;
14088;SDS011;7120;52.890;6.040;2023-06-05T13:48:22;4.67;;;3.77;;
14088;SDS011;7120;52.890;6.040;2023-06-05T13:50:47;3.33;;;3.08;;
14088;SDS011;7120;52.890;6.040;2023-06-05T13:53:13;4.70;;;3.55;;
14088;SDS011;7120;52.890;6.040;2023-06-05T13:55:38;3.40;;;3.10;;
14088;SDS011;7120;52.890;6.040;2023-06-05T13:58:05;3.63;;;3.33;;
14088;SDS011;7120;52.890;6.040;2023-06-05T14:00:32;4.70;;;3.47;;
14088;SDS011;7120;52.890;6.040;2023-06-05T14:02:58;4.17;;;3.63;;
14088;SDS011;7120;52.890;6.040;2023-06-05T14:05:23;4.70;;;3.30;;
14088;SDS011;7120;52.890;6.040;2023-06-05T14:07:50;4.80;;;3.40;;
14088;SDS011;7120;52.890;6.040;2023-06-05T14:10:21;3.37;;;3.07;;
14088;SDS011;7120;52.890;6.040;2023-06-05T14:12:47;4.20;;;3.40;;
14088;SDS011;7120;52.890;6.040;2023-06-05T14:15:13;7.80;;;3.83;;
14088;SDS011;7120;52.890;6.040;2023-06-05T14:17:38;4.00;;;3.60;;
14088;SDS011;7120;52.890;6.040;2023-06-05T14:20:04;4.00;;;3.60;;
14088;SDS011;7120;52.890;6.040;2023-06-05T14:22:30;3.77;;;3.47;;
14088;SDS011;7120;52.890;6.040;2023-06-05T14:24:55;3.90;;;3.53;;
14088;SDS011;7120;52.890;6.040;2023-06-05T14:27:20;4.80;;;4.00;;
14088;SDS011;7120;52.890;6.040;2023-06-05T14:29:46;4.00;;;3.70;;
14088;SDS011;7120;52.890;6.040;2023-06-05T14:32:11;5.73;;;3.67;;
14088;SDS011;7120;52.890;6.040;2023-06-05T14:34:37;3.97;;;3.57;;
14088;SDS011;7120;52.890;6.040;2023-06-05T14:37:02;4.00;;;3.70;;
14088;SDS011;7120;52.890;6.040;2023-06-05T14:39:28;4.23;;;3.83;;
14088;SDS011;7120;52.890;6.040;2023-06-05T14:41:53;3.97;;;3.67;;
14088;SDS011;7120;52.890;6.040;2023-06-05T14:44:18;4.17;;;3.80;;
14088;SDS011;7120;52.890;6.040;2023-06-05T14:46:43;4.60;;;4.20;;
14088;SDS011;7120;52.890;6.040;2023-06-05T14:49:10;4.53;;;3.70;;
14088;SDS011;7120;52.890;6.040;2023-06-05T14:51:37;3.87;;;3.57;;
14088;SDS011;7120;52.890;6.040;2023-06-05T14:54:03;4.50;;;4.10;;
14088;SDS011;7120;52.890;6.040;2023-06-05T14:56:30;4.30;;;3.90;;
14088;SDS011;7120;52.890;6.040;2023-06-05T14:58:55;4.93;;;4.10;;
14088;SDS011;7120;52.890;6.040;2023-06-05T15:01:20;4.23;;;3.50;;
14088;SDS011;7120;52.890;6.040;2023-06-05T15:03:46;5.63;;;4.27;;
14088;SDS011;7120;52.890;6.040;2023-06-05T15:06:12;4.80;;;4.17;;
14088;SDS011;7120;52.890;6.040;2023-06-05T15:08:38;4.93;;;4.53;;
14088;SDS011;7120;52.890;6.040;2023-06-05T15:11:03;4.80;;;4.30;;
14088;SDS011;7120;52.890;6.040;2023-06-05T15:13:28;5.43;;;4.40;;
14088;SDS011;7120;52.890;6.040;2023-06-05T15:15:54;4.80;;;4.40;;
14088;SDS011;7120;52.890;6.040;2023-06-05T15:18:19;4.87;;;4.37;;
14088;SDS011;7120;52.890;6.040;2023-06-05T15:20:45;5.33;;;4.80;;
14088;SDS011;7120;52.890;6.040;2023-06-05T15:23:10;5.80;;;4.83;;
14088;SDS011;7120;52.890;6.040;2023-06-05T15:25:35;7.03;;;5.97;;
14088;SDS011;7120;52.890;6.040;2023-06-05T15:28:01;5.77;;;5.20;;
14088;SDS011;7120;52.890;6.040;2023-06-05T15:30:27;5.60;;;5.10;;
14088;SDS011;7120;52.890;6.040;2023-06-05T15:32:52;6.43;;;5.40;;
14088;SDS011;7120;52.890;6.040;2023-06-05T15:35:17;7.03;;;5.10;;